sensor_id;sensor_type;location;lat;lon;timestamp;P1;durP1;ratioP1;P2;durP2;ratioP2
4323;SDS011;2175;51.018;6.994;2023-04-01T00:02:17;2.70;;;1.10;;
4323;SDS011;2175;51.018;6.994;2023-04-01T00:04:43;2.60;;;1.00;;
4323;SDS011;2175;51.018;6.994;2023-04-01T00:07:08;2.80;;;0.90;;
4323;SDS011;2175;51.018;6.994;2023-04-01T00:09:36;3.60;;;1.60;;
4323;SDS011;2175;51.018;6.994;2023-04-01T00:12:02;5.70;;;1.30;;
4323;SDS011;2175;51.018;6.994;2023-04-01T00:14:28;4.73;;;1.20;;
4323;SDS011;2175;51.018;6.994;2023-04-01T00:16:54;3.73;;;1.30;;
4323;SDS011;2175;51.018;6.994;2023-04-01T00:19:20;1.60;;;0.93;;
4323;SDS011;2175;51.018;6.994;2023-04-01T00:21:45;3.77;;;2.10;;
4323;SDS011;2175;51.018;6.994;2023-04-01T00:24:13;3.03;;;1.10;;
4323;SDS011;2175;51.018;6.994;2023-04-01T00:26:38;2.83;;;1.30;;
4323;SDS011;2175;51.018;6.994;2023-04-01T00:29:07;1.80;;;1.00;;
4323;SDS011;2175;51.018;6.994;2023-04-01T00:31:33;1.87;;;1.07;;
4323;SDS011;2175;51.018;6.994;2023-04-01T00:33:58;2.70;;;1.03;;
4323;SDS011;2175;51.018;6.994;2023-04-01T00:36:24;4.23;;;1.00;;
4323;SDS011;2175;51.018;6.994;2023-04-01T00:38:50;8.23;;;1.07;;
4323;SDS011;2175;51.018;6.994;2023-04-01T00:41:17;1.50;;;1.10;;
4323;SDS011;2175;51.018;6.994;2023-04-01T00:43:45;3.57;;;1.53;;
4323;SDS011;2175;51.018;6.994;2023-04-01T00:46:12;3.03;;;1.10;;
4323;SDS011;2175;51.018;6.994;2023-04-01T00:48:42;3.00;;;1.20;;
4323;SDS011;2175;51.018;6.994;2023-04-01T00:51:15;4.13;;;1.80;;
4323;SDS011;2175;51.018;6.994;2023-04-01T00:53:46;1.80;;;1.10;;
4323;SDS011;2175;51.018;6.994;2023-04-01T00:56:19;1.90;;;1.00;;
4323;SDS011;2175;51.018;6.994;2023-04-01T00:59:00;2.03;;;1.07;;
4323;SDS011;2175;51.018;6.994;2023-04-01T01:01:28;3.70;;;1.20;;
4323;SDS011;2175;51.018;6.994;2023-04-01T01:03:55;3.10;;;1.10;;
4323;SDS011;2175;51.018;6.994;2023-04-01T01:06:26;3.50;;;1.17;;
4323;SDS011;2175;51.018;6.994;2023-04-01T01:17:13;3.13;;;1.10;;
4323;SDS011;2175;51.018;6.994;2023-04-01T01:36:25;2.70;;;1.00;;
4323;SDS011;2175;51.018;6.994;2023-04-01T01:38:55;2.40;;;1.00;;
4323;SDS011;2175;51.018;6.994;2023-04-01T01:41:22;1.70;;;1.00;;
4323;SDS011;2175;51.018;6.994;2023-04-01T01:43:51;2.87;;;0.90;;
4323;SDS011;2175;51.018;6.994;2023-04-01T01:46:22;3.40;;;1.07;;
4323;SDS011;2175;51.018;6.994;2023-04-01T01:48:51;8.27;;;1.00;;
4323;SDS011;2175;51.018;6.994;2023-04-01T01:51:19;3.80;;;1.07;;
4323;SDS011;2175;51.018;6.994;2023-04-01T01:53:46;2.80;;;1.00;;
4323;SDS011;2175;51.018;6.994;2023-04-01T01:56:12;1.80;;;1.00;;
4323;SDS011;2175;51.018;6.994;2023-04-01T01:58:43;2.57;;;1.00;;
4323;SDS011;2175;51.018;6.994;2023-04-01T02:01:24;1.50;;;1.00;;
4323;SDS011;2175;51.018;6.994;2023-04-01T02:03:51;2.60;;;1.10;;
4323;SDS011;2175;51.018;6.994;2023-04-01T02:06:19;3.10;;;1.13;;
4323;SDS011;2175;51.018;6.994;2023-04-01T02:08:52;1.53;;;0.90;;
4323;SDS011;2175;51.018;6.994;2023-04-01T02:11:30;2.87;;;1.33;;
4323;SDS011;2175;51.018;6.994;2023-04-01T02:14:13;3.30;;;0.90;;
4323;SDS011;2175;51.018;6.994;2023-04-01T02:16:55;1.73;;;0.80;;
4323;SDS011;2175;51.018;6.994;2023-04-01T02:19:27;1.57;;;1.00;;
4323;SDS011;2175;51.018;6.994;2023-04-01T02:22:01;1.63;;;0.90;;
4323;SDS011;2175;51.018;6.994;2023-04-01T02:24:30;2.63;;;0.93;;
4323;SDS011;2175;51.018;6.994;2023-04-01T02:26:58;1.60;;;1.00;;
4323;SDS011;2175;51.018;6.994;2023-04-01T02:29:24;4.93;;;0.90;;
4323;SDS011;2175;51.018;6.994;2023-04-01T02:31:50;2.53;;;0.90;;
4323;SDS011;2175;51.018;6.994;2023-04-01T02:34:18;1.50;;;0.80;;
4323;SDS011;2175;51.018;6.994;2023-04-01T02:36:45;6.87;;;1.20;;
4323;SDS011;2175;51.018;6.994;2023-04-01T02:39:12;2.30;;;1.10;;
4323;SDS011;2175;51.018;6.994;2023-04-01T02:41:39;3.43;;;1.47;;
4323;SDS011;2175;51.018;6.994;2023-04-01T02:44:06;1.20;;;0.80;;
4323;SDS011;2175;51.018;6.994;2023-04-01T02:46:32;2.83;;;0.90;;
4323;SDS011;2175;51.018;6.994;2023-04-01T02:48:57;1.63;;;0.90;;
4323;SDS011;2175;51.018;6.994;2023-04-01T02:51:23;1.87;;;0.97;;
4323;SDS011;2175;51.018;6.994;2023-04-01T02:53:50;3.10;;;0.80;;
4323;SDS011;2175;51.018;6.994;2023-04-01T02:56:15;2.50;;;0.93;;
4323;SDS011;2175;51.018;6.994;2023-04-01T02:58:41;1.63;;;1.00;;
4323;SDS011;2175;51.018;6.994;2023-04-01T03:01:07;1.33;;;0.93;;
4323;SDS011;2175;51.018;6.994;2023-04-01T03:03:33;1.90;;;0.90;;
4323;SDS011;2175;51.018;6.994;2023-04-01T03:06:04;2.83;;;1.00;;
4323;SDS011;2175;51.018;6.994;2023-04-01T03:08:33;2.00;;;0.90;;
4323;SDS011;2175;51.018;6.994;2023-04-01T03:10:59;3.87;;;1.20;;
4323;SDS011;2175;51.018;6.994;2023-04-01T03:13:24;3.33;;;1.10;;
4323;SDS011;2175;51.018;6.994;2023-04-01T03:15:50;1.73;;;0.90;;
4323;SDS011;2175;51.018;6.994;2023-04-01T03:18:16;2.20;;;1.13;;
4323;SDS011;2175;51.018;6.994;2023-04-01T03:20:42;1.80;;;0.90;;
4323;SDS011;2175;51.018;6.994;2023-04-01T03:23:08;3.10;;;1.10;;
4323;SDS011;2175;51.018;6.994;2023-04-01T03:25:33;1.33;;;0.80;;
4323;SDS011;2175;51.018;6.994;2023-04-01T03:27:59;2.93;;;1.23;;
4323;SDS011;2175;51.018;6.994;2023-04-01T03:30:25;6.20;;;0.80;;
4323;SDS011;2175;51.018;6.994;2023-04-01T03:32:51;1.13;;;0.80;;
4323;SDS011;2175;51.018;6.994;2023-04-01T03:35:17;1.30;;;0.93;;
4323;SDS011;2175;51.018;6.994;2023-04-01T03:37:43;1.63;;;0.80;;
4323;SDS011;2175;51.018;6.994;2023-04-01T03:40:09;2.53;;;1.00;;
4323;SDS011;2175;51.018;6.994;2023-04-01T03:42:35;1.83;;;0.90;;
4323;SDS011;2175;51.018;6.994;2023-04-01T03:45:02;1.53;;;0.90;;
4323;SDS011;2175;51.018;6.994;2023-04-01T03:47:28;2.40;;;1.13;;
4323;SDS011;2175;51.018;6.994;2023-04-01T03:49:54;2.70;;;0.80;;
4323;SDS011;2175;51.018;6.994;2023-04-01T03:52:20;2.90;;;0.90;;
4323;SDS011;2175;51.018;6.994;2023-04-01T03:54:46;2.13;;;0.83;;
4323;SDS011;2175;51.018;6.994;2023-04-01T03:57:11;1.37;;;0.77;;
4323;SDS011;2175;51.018;6.994;2023-04-01T03:59:37;2.90;;;1.10;;
4323;SDS011;2175;51.018;6.994;2023-04-01T04:02:03;2.20;;;0.80;;
4323;SDS011;2175;51.018;6.994;2023-04-01T04:04:29;3.57;;;1.10;;
4323;SDS011;2175;51.018;6.994;2023-04-01T04:06:55;1.67;;;0.90;;
4323;SDS011;2175;51.018;6.994;2023-04-01T04:09:21;2.23;;;1.00;;
4323;SDS011;2175;51.018;6.994;2023-04-01T04:11:47;4.23;;;0.80;;
4323;SDS011;2175;51.018;6.994;2023-04-01T04:14:13;1.70;;;1.00;;
4323;SDS011;2175;51.018;6.994;2023-04-01T04:16:38;2.80;;;1.07;;
4323;SDS011;2175;51.018;6.994;2023-04-01T04:19:04;1.60;;;0.83;;
4323;SDS011;2175;51.018;6.994;2023-04-01T04:21:30;3.20;;;1.20;;
4323;SDS011;2175;51.018;6.994;2023-04-01T04:23:55;1.17;;;0.80;;
4323;SDS011;2175;51.018;6.994;2023-04-01T04:26:21;2.40;;;0.80;;
4323;SDS011;2175;51.018;6.994;2023-04-01T04:28:47;2.23;;;1.00;;
4323;SDS011;2175;51.018;6.994;2023-04-01T04:31:17;1.40;;;0.83;;
4323;SDS011;2175;51.018;6.994;2023-04-01T04:33:45;2.43;;;0.90;;
4323;SDS011;2175;51.018;6.994;2023-04-01T04:36:10;1.60;;;0.90;;
4323;SDS011;2175;51.018;6.994;2023-04-01T04:38:36;2.60;;;1.10;;
4323;SDS011;2175;51.018;6.994;2023-04-01T04:41:02;1.00;;;0.77;;
4323;SDS011;2175;51.018;6.994;2023-04-01T04:43:27;3.83;;;1.10;;
4323;SDS011;2175;51.018;6.994;2023-04-01T04:45:53;1.20;;;0.87;;
4323;SDS011;2175;51.018;6.994;2023-04-01T04:48:18;2.80;;;1.07;;
4323;SDS011;2175;51.018;6.994;2023-04-01T04:50:48;1.53;;;0.90;;
4323;SDS011;2175;51.018;6.994;2023-04-01T04:53:16;1.57;;;0.80;;
4323;SDS011;2175;51.018;6.994;2023-04-01T04:55:46;2.03;;;0.90;;
4323;SDS011;2175;51.018;6.994;2023-04-01T04:58:13;3.30;;;1.07;;
4323;SDS011;2175;51.018;6.994;2023-04-01T05:00:38;1.13;;;0.80;;
4323;SDS011;2175;51.018;6.994;2023-04-01T05:03:04;1.20;;;0.80;;
4323;SDS011;2175;51.018;6.994;2023-04-01T05:05:30;1.10;;;0.80;;
4323;SDS011;2175;51.018;6.994;2023-04-01T05:07:55;1.30;;;0.90;;
4323;SDS011;2175;51.018;6.994;2023-04-01T05:10:21;1.10;;;0.90;;
4323;SDS011;2175;51.018;6.994;2023-04-01T05:12:47;3.70;;;0.90;;
4323;SDS011;2175;51.018;6.994;2023-04-01T05:15:12;1.80;;;0.93;;
4323;SDS011;2175;51.018;6.994;2023-04-01T05:17:38;1.80;;;0.90;;
4323;SDS011;2175;51.018;6.994;2023-04-01T05:20:04;2.60;;;0.90;;
4323;SDS011;2175;51.018;6.994;2023-04-01T05:22:30;2.60;;;1.00;;
4323;SDS011;2175;51.018;6.994;2023-04-01T05:24:56;1.57;;;0.90;;
4323;SDS011;2175;51.018;6.994;2023-04-01T05:27:22;1.10;;;0.90;;
4323;SDS011;2175;51.018;6.994;2023-04-01T05:29:47;1.37;;;0.87;;
4323;SDS011;2175;51.018;6.994;2023-04-01T05:32:13;2.17;;;1.10;;
4323;SDS011;2175;51.018;6.994;2023-04-01T05:34:38;1.40;;;1.00;;
4323;SDS011;2175;51.018;6.994;2023-04-01T05:37:04;2.07;;;0.90;;
4323;SDS011;2175;51.018;6.994;2023-04-01T05:39:30;1.67;;;1.00;;
4323;SDS011;2175;51.018;6.994;2023-04-01T05:41:55;1.97;;;1.00;;
4323;SDS011;2175;51.018;6.994;2023-04-01T05:44:21;2.23;;;1.13;;
4323;SDS011;2175;51.018;6.994;2023-04-01T05:46:46;2.60;;;1.10;;
4323;SDS011;2175;51.018;6.994;2023-04-01T05:49:12;1.93;;;1.10;;
4323;SDS011;2175;51.018;6.994;2023-04-01T05:51:38;1.27;;;0.90;;
4323;SDS011;2175;51.018;6.994;2023-04-01T05:54:04;1.57;;;1.00;;
4323;SDS011;2175;51.018;6.994;2023-04-01T05:56:30;1.57;;;1.00;;
4323;SDS011;2175;51.018;6.994;2023-04-01T05:58:55;3.60;;;1.33;;
4323;SDS011;2175;51.018;6.994;2023-04-01T06:01:21;7.13;;;1.03;;
4323;SDS011;2175;51.018;6.994;2023-04-01T06:03:47;2.10;;;1.10;;
4323;SDS011;2175;51.018;6.994;2023-04-01T06:06:17;1.40;;;0.90;;
4323;SDS011;2175;51.018;6.994;2023-04-01T06:08:50;2.00;;;1.10;;
4323;SDS011;2175;51.018;6.994;2023-04-01T06:27:56;1.37;;;1.10;;
4323;SDS011;2175;51.018;6.994;2023-04-01T06:30:43;3.00;;;1.27;;
4323;SDS011;2175;51.018;6.994;2023-04-01T06:47:44;1.73;;;1.10;;
4323;SDS011;2175;51.018;6.994;2023-04-01T06:50:31;2.20;;;1.13;;
4323;SDS011;2175;51.018;6.994;2023-04-01T06:55:53;3.93;;;1.60;;
4323;SDS011;2175;51.018;6.994;2023-04-01T06:58:33;2.03;;;1.20;;
4323;SDS011;2175;51.018;6.994;2023-04-01T07:01:07;2.03;;;1.30;;
4323;SDS011;2175;51.018;6.994;2023-04-01T07:03:43;2.40;;;1.27;;
4323;SDS011;2175;51.018;6.994;2023-04-01T07:09:31;5.17;;;1.80;;
4323;SDS011;2175;51.018;6.994;2023-04-01T07:12:03;2.60;;;1.40;;
4323;SDS011;2175;51.018;6.994;2023-04-01T07:14:37;2.10;;;1.40;;
4323;SDS011;2175;51.018;6.994;2023-04-01T07:17:16;2.37;;;2.07;;
4323;SDS011;2175;51.018;6.994;2023-04-01T07:24:57;4.47;;;1.80;;
4323;SDS011;2175;51.018;6.994;2023-04-01T07:27:26;4.67;;;2.00;;
4323;SDS011;2175;51.018;6.994;2023-04-01T07:29:51;2.00;;;1.80;;
4323;SDS011;2175;51.018;6.994;2023-04-01T07:48:14;2.77;;;1.70;;
4323;SDS011;2175;51.018;6.994;2023-04-01T07:51:09;3.57;;;1.80;;
4323;SDS011;2175;51.018;6.994;2023-04-01T07:53:36;3.57;;;1.97;;
4323;SDS011;2175;51.018;6.994;2023-04-01T08:04:53;2.53;;;1.83;;
4323;SDS011;2175;51.018;6.994;2023-04-01T08:10:25;3.70;;;2.10;;
4323;SDS011;2175;51.018;6.994;2023-04-01T08:18:06;4.07;;;2.00;;
4323;SDS011;2175;51.018;6.994;2023-04-01T08:21:10;2.33;;;1.80;;
4323;SDS011;2175;51.018;6.994;2023-04-01T08:23:43;3.20;;;2.10;;
4323;SDS011;2175;51.018;6.994;2023-04-01T08:31:53;4.83;;;1.60;;
4323;SDS011;2175;51.018;6.994;2023-04-01T08:34:24;4.67;;;1.87;;
4323;SDS011;2175;51.018;6.994;2023-04-01T08:36:59;2.70;;;2.00;;
4323;SDS011;2175;51.018;6.994;2023-04-01T08:39:31;2.43;;;1.90;;
4323;SDS011;2175;51.018;6.994;2023-04-01T08:42:09;2.00;;;1.50;;
4323;SDS011;2175;51.018;6.994;2023-04-01T08:59:28;1.50;;;1.40;;
4323;SDS011;2175;51.018;6.994;2023-04-01T09:13:27;3.80;;;1.50;;
4323;SDS011;2175;51.018;6.994;2023-04-01T09:21:31;2.60;;;1.40;;
4323;SDS011;2175;51.018;6.994;2023-04-01T09:35:24;1.77;;;1.43;;
4323;SDS011;2175;51.018;6.994;2023-04-01T09:40:54;1.70;;;1.60;;
4323;SDS011;2175;51.018;6.994;2023-04-01T09:46:43;3.67;;;1.67;;
4323;SDS011;2175;51.018;6.994;2023-04-01T09:52:20;2.20;;;1.83;;
4323;SDS011;2175;51.018;6.994;2023-04-01T10:09:31;2.00;;;1.70;;
4323;SDS011;2175;51.018;6.994;2023-04-01T10:25:52;3.87;;;2.60;;
4323;SDS011;2175;51.018;6.994;2023-04-01T10:31:31;5.20;;;2.10;;
4323;SDS011;2175;51.018;6.994;2023-04-01T10:36:57;2.90;;;1.93;;
4323;SDS011;2175;51.018;6.994;2023-04-01T11:01:27;4.03;;;2.90;;
4323;SDS011;2175;51.018;6.994;2023-04-01T11:17:59;5.23;;;3.10;;
4323;SDS011;2175;51.018;6.994;2023-04-01T11:26:51;2.90;;;2.60;;
4323;SDS011;2175;51.018;6.994;2023-04-01T11:38:43;4.20;;;3.40;;
4323;SDS011;2175;51.018;6.994;2023-04-01T11:41:33;2.97;;;2.67;;
4323;SDS011;2175;51.018;6.994;2023-04-01T11:44:11;3.73;;;2.90;;
4323;SDS011;2175;51.018;6.994;2023-04-01T11:49:36;2.50;;;2.30;;
4323;SDS011;2175;51.018;6.994;2023-04-01T11:55:15;2.83;;;2.50;;
4323;SDS011;2175;51.018;6.994;2023-04-01T11:58:05;3.17;;;2.70;;
4323;SDS011;2175;51.018;6.994;2023-04-01T12:01:02;3.63;;;3.20;;
4323;SDS011;2175;51.018;6.994;2023-04-01T12:12:11;4.93;;;3.30;;
4323;SDS011;2175;51.018;6.994;2023-04-01T12:17:39;2.47;;;2.27;;
4323;SDS011;2175;51.018;6.994;2023-04-01T12:20:49;3.10;;;2.40;;
4323;SDS011;2175;51.018;6.994;2023-04-01T12:31:22;2.70;;;2.50;;
4323;SDS011;2175;51.018;6.994;2023-04-01T12:48:04;2.50;;;2.20;;
4323;SDS011;2175;51.018;6.994;2023-04-01T12:56:02;2.63;;;2.40;;
4323;SDS011;2175;51.018;6.994;2023-04-01T13:08:04;3.20;;;2.90;;
4323;SDS011;2175;51.018;6.994;2023-04-01T13:11:18;3.23;;;2.93;;
4323;SDS011;2175;51.018;6.994;2023-04-01T13:17:09;3.60;;;3.30;;
4323;SDS011;2175;51.018;6.994;2023-04-01T14:04:35;5.90;;;4.90;;
4323;SDS011;2175;51.018;6.994;2023-04-01T14:10:39;4.97;;;4.10;;
4323;SDS011;2175;51.018;6.994;2023-04-01T14:15:57;5.77;;;4.30;;
4323;SDS011;2175;51.018;6.994;2023-04-01T14:18:45;4.90;;;4.30;;
4323;SDS011;2175;51.018;6.994;2023-04-01T14:30:05;6.20;;;4.83;;
4323;SDS011;2175;51.018;6.994;2023-04-01T14:52:23;6.20;;;5.30;;
4323;SDS011;2175;51.018;6.994;2023-04-01T14:54:53;8.50;;;6.33;;
4323;SDS011;2175;51.018;6.994;2023-04-01T14:57:27;7.07;;;5.13;;
4323;SDS011;2175;51.018;6.994;2023-04-01T15:08:14;8.30;;;7.50;;
4323;SDS011;2175;51.018;6.994;2023-04-01T15:10:57;9.90;;;7.60;;
4323;SDS011;2175;51.018;6.994;2023-04-01T15:19:00;7.70;;;6.90;;
4323;SDS011;2175;51.018;6.994;2023-04-01T15:21:42;8.33;;;7.43;;
4323;SDS011;2175;51.018;6.994;2023-04-01T15:24:23;9.13;;;8.23;;
4323;SDS011;2175;51.018;6.994;2023-04-01T15:27:23;8.83;;;7.50;;
4323;SDS011;2175;51.018;6.994;2023-04-01T15:44:03;9.20;;;8.30;;
4323;SDS011;2175;51.018;6.994;2023-04-01T15:49:19;10.87;;;8.10;;
4323;SDS011;2175;51.018;6.994;2023-04-01T15:59:51;6.20;;;5.13;;
4323;SDS011;2175;51.018;6.994;2023-04-01T16:02:41;5.93;;;5.33;;
4323;SDS011;2175;51.018;6.994;2023-04-01T16:13:33;6.73;;;5.97;;
4323;SDS011;2175;51.018;6.994;2023-04-01T16:16:09;8.53;;;6.73;;
4323;SDS011;2175;51.018;6.994;2023-04-01T16:18:57;6.90;;;5.53;;
4323;SDS011;2175;51.018;6.994;2023-04-01T16:21:38;6.00;;;5.03;;
4323;SDS011;2175;51.018;6.994;2023-04-01T16:24:35;5.50;;;5.00;;
4323;SDS011;2175;51.018;6.994;2023-04-01T16:27:27;6.70;;;5.77;;
4323;SDS011;2175;51.018;6.994;2023-04-01T16:33:05;9.07;;;7.30;;
4323;SDS011;2175;51.018;6.994;2023-04-01T16:51:41;7.30;;;6.07;;
4323;SDS011;2175;51.018;6.994;2023-04-01T16:54:36;6.30;;;5.23;;
4323;SDS011;2175;51.018;6.994;2023-04-01T16:57:03;8.03;;;6.90;;
4323;SDS011;2175;51.018;6.994;2023-04-01T16:59:37;7.80;;;6.87;;
4323;SDS011;2175;51.018;6.994;2023-04-01T17:04:45;6.60;;;6.00;;
4323;SDS011;2175;51.018;6.994;2023-04-01T17:07:38;6.30;;;5.27;;
4323;SDS011;2175;51.018;6.994;2023-04-01T17:10:26;6.10;;;5.50;;
4323;SDS011;2175;51.018;6.994;2023-04-01T17:16:12;6.70;;;6.00;;
4323;SDS011;2175;51.018;6.994;2023-04-01T17:18:50;8.00;;;5.53;;
4323;SDS011;2175;51.018;6.994;2023-04-01T17:21:46;5.97;;;5.20;;
4323;SDS011;2175;51.018;6.994;2023-04-01T17:26:57;8.13;;;5.27;;
4323;SDS011;2175;51.018;6.994;2023-04-01T17:30:01;8.70;;;7.80;;
4323;SDS011;2175;51.018;6.994;2023-04-01T17:35:20;7.00;;;6.20;;
4323;SDS011;2175;51.018;6.994;2023-04-01T17:40:44;5.80;;;4.70;;
4323;SDS011;2175;51.018;6.994;2023-04-01T17:43:40;4.40;;;4.00;;
4323;SDS011;2175;51.018;6.994;2023-04-01T17:52:08;6.30;;;4.50;;
4323;SDS011;2175;51.018;6.994;2023-04-01T18:06:03;5.73;;;5.10;;
4323;SDS011;2175;51.018;6.994;2023-04-01T18:08:37;9.10;;;6.00;;
4323;SDS011;2175;51.018;6.994;2023-04-01T18:11:33;7.93;;;6.30;;
4323;SDS011;2175;51.018;6.994;2023-04-01T18:14:21;7.03;;;6.33;;
4323;SDS011;2175;51.018;6.994;2023-04-01T18:20:00;7.90;;;6.73;;
4323;SDS011;2175;51.018;6.994;2023-04-01T18:22:36;6.90;;;5.80;;
4323;SDS011;2175;51.018;6.994;2023-04-01T18:25:45;6.87;;;6.20;;
4323;SDS011;2175;51.018;6.994;2023-04-01T18:28:14;11.00;;;8.27;;
4323;SDS011;2175;51.018;6.994;2023-04-01T18:36:13;11.10;;;8.43;;
4323;SDS011;2175;51.018;6.994;2023-04-01T18:39:02;10.50;;;7.90;;
4323;SDS011;2175;51.018;6.994;2023-04-01T18:41:40;8.67;;;7.77;;
4323;SDS011;2175;51.018;6.994;2023-04-01T18:49:52;9.53;;;8.53;;
4323;SDS011;2175;51.018;6.994;2023-04-01T18:52:23;9.73;;;8.70;;
4323;SDS011;2175;51.018;6.994;2023-04-01T19:00:16;9.10;;;8.20;;
4323;SDS011;2175;51.018;6.994;2023-04-01T19:02:48;9.00;;;8.00;;
4323;SDS011;2175;51.018;6.994;2023-04-01T19:05:25;9.90;;;8.60;;
4323;SDS011;2175;51.018;6.994;2023-04-01T19:10:57;11.30;;;8.40;;
4323;SDS011;2175;51.018;6.994;2023-04-01T19:19:14;11.40;;;8.80;;
4323;SDS011;2175;51.018;6.994;2023-04-01T19:27:34;12.00;;;8.40;;
4323;SDS011;2175;51.018;6.994;2023-04-01T19:36:09;9.30;;;6.87;;
4323;SDS011;2175;51.018;6.994;2023-04-01T19:38:40;9.70;;;7.63;;
4323;SDS011;2175;51.018;6.994;2023-04-01T19:44:06;9.63;;;7.10;;
4323;SDS011;2175;51.018;6.994;2023-04-01T19:47:01;10.50;;;6.83;;
4323;SDS011;2175;51.018;6.994;2023-04-01T19:49:51;7.90;;;6.70;;
4323;SDS011;2175;51.018;6.994;2023-04-01T19:55:21;9.87;;;6.63;;
4323;SDS011;2175;51.018;6.994;2023-04-01T19:58:22;10.40;;;7.00;;
4323;SDS011;2175;51.018;6.994;2023-04-01T20:00:59;8.20;;;6.80;;
4323;SDS011;2175;51.018;6.994;2023-04-01T20:09:11;8.07;;;5.50;;
4323;SDS011;2175;51.018;6.994;2023-04-01T20:14:53;7.50;;;5.07;;
4323;SDS011;2175;51.018;6.994;2023-04-01T20:25:23;7.83;;;5.40;;
4323;SDS011;2175;51.018;6.994;2023-04-01T20:28:14;8.40;;;6.50;;
4323;SDS011;2175;51.018;6.994;2023-04-01T20:44:10;7.63;;;6.83;;
4323;SDS011;2175;51.018;6.994;2023-04-01T20:47:00;7.10;;;5.57;;
4323;SDS011;2175;51.018;6.994;2023-04-01T20:52:49;8.10;;;7.30;;
4323;SDS011;2175;51.018;6.994;2023-04-01T21:06:48;9.10;;;7.60;;
4323;SDS011;2175;51.018;6.994;2023-04-01T21:17:38;9.50;;;7.80;;
4323;SDS011;2175;51.018;6.994;2023-04-01T21:28:35;10.87;;;9.07;;
4323;SDS011;2175;51.018;6.994;2023-04-01T21:33:54;9.73;;;8.73;;
4323;SDS011;2175;51.018;6.994;2023-04-01T21:42:16;15.63;;;9.90;;
4323;SDS011;2175;51.018;6.994;2023-04-01T21:45:20;10.60;;;9.50;;
4323;SDS011;2175;51.018;6.994;2023-04-01T21:59:20;8.80;;;7.40;;
4323;SDS011;2175;51.018;6.994;2023-04-01T22:07:53;8.70;;;7.37;;
4323;SDS011;2175;51.018;6.994;2023-04-01T22:13:32;8.03;;;6.93;;
4323;SDS011;2175;51.018;6.994;2023-04-01T22:16:08;6.90;;;6.20;;
4323;SDS011;2175;51.018;6.994;2023-04-01T22:18:48;7.20;;;6.30;;
4323;SDS011;2175;51.018;6.994;2023-04-01T22:21:29;10.53;;;6.83;;
4323;SDS011;2175;51.018;6.994;2023-04-01T22:32:32;7.00;;;6.03;;
4323;SDS011;2175;51.018;6.994;2023-04-01T22:40:23;6.77;;;5.80;;
4323;SDS011;2175;51.018;6.994;2023-04-01T22:42:59;7.93;;;6.30;;
4323;SDS011;2175;51.018;6.994;2023-04-01T22:48:54;6.90;;;6.20;;
4323;SDS011;2175;51.018;6.994;2023-04-01T22:51:15;7.30;;;6.60;;
4323;SDS011;2175;51.018;6.994;2023-04-01T22:56:27;8.83;;;6.57;;
4323;SDS011;2175;51.018;6.994;2023-04-01T22:59:04;7.93;;;6.23;;
4323;SDS011;2175;51.018;6.994;2023-04-01T23:01:39;8.60;;;7.20;;
4323;SDS011;2175;51.018;6.994;2023-04-01T23:04:09;6.70;;;5.90;;
4323;SDS011;2175;51.018;6.994;2023-04-01T23:06:42;7.37;;;6.60;;
4323;SDS011;2175;51.018;6.994;2023-04-01T23:09:19;8.67;;;7.33;;
4323;SDS011;2175;51.018;6.994;2023-04-01T23:12:08;8.57;;;6.87;;
4323;SDS011;2175;51.018;6.994;2023-04-01T23:17:22;8.87;;;6.67;;
4323;SDS011;2175;51.018;6.994;2023-04-01T23:22:35;8.53;;;6.80;;
4323;SDS011;2175;51.018;6.994;2023-04-01T23:30:47;9.07;;;7.50;;
4323;SDS011;2175;51.018;6.994;2023-04-01T23:36:28;9.60;;;6.93;;
4323;SDS011;2175;51.018;6.994;2023-04-01T23:38:41;8.60;;;7.63;;
4323;SDS011;2175;51.018;6.994;2023-04-01T23:41:08;10.10;;;7.90;;
4323;SDS011;2175;51.018;6.994;2023-04-01T23:43:43;10.90;;;9.20;;
4323;SDS011;2175;51.018;6.994;2023-04-01T23:46:10;11.63;;;9.27;;
4323;SDS011;2175;51.018;6.994;2023-04-01T23:48:41;11.40;;;9.43;;
4323;SDS011;2175;51.018;6.994;2023-04-01T23:53:55;13.50;;;11.27;;
4323;SDS011;2175;51.018;6.994;2023-04-01T23:56:43;14.03;;;11.53;;
4323;SDS011;2175;51.018;6.994;2023-04-01T23:59:22;12.20;;;9.93;;
